createdAt,value
2022-11-17T00:00:05.855Z,97267.59
2022-11-17T00:01:15.908Z,97262.56
2022-11-17T00:02:19.687Z,97261.72
2022-11-17T00:03:22.425Z,97260.78
2022-11-17T00:04:27.116Z,97262.56
2022-11-17T00:05:29.737Z,97265.13
2022-11-17T00:06:33.495Z,97259.97
2022-11-17T00:07:36.150Z,97255.63
2022-11-17T00:08:39.866Z,97259.84
2022-11-17T00:09:42.627Z,97268.41
2022-11-17T00:10:46.337Z,97264.88
2022-11-17T00:12:08.925Z,97270.03
2022-11-17T00:13:30.105Z,97265.94
2022-11-17T00:14:33.369Z,97268.63
2022-11-17T00:15:37.266Z,97266.88
2022-11-17T00:16:39.923Z,97268.63
2022-11-17T00:17:43.679Z,97261.59
2022-11-17T00:19:04.535Z,97264.88
2022-11-17T00:20:28.359Z,97265.69
2022-11-17T00:21:31.355Z,97263.03
2022-11-17T00:22:35.024Z,97261.16
2022-11-17T00:23:47.562Z,97270.63
2022-11-17T00:24:51.604Z,97266.31
2022-11-17T00:25:54.308Z,97261.03
2022-11-17T00:27:05.209Z,97261.75
2022-11-17T00:28:07.817Z,97260.69
2022-11-17T00:29:11.457Z,97265.00
2022-11-17T00:30:34.827Z,97262.44
2022-11-17T00:31:56.085Z,97260.00
2022-11-17T00:33:20.508Z,97255.06
2022-11-17T00:34:25.095Z,97253.41
2022-11-17T00:35:27.755Z,97249.22
2022-11-17T00:36:31.463Z,97244.88
2022-11-17T00:37:37.147Z,97245.56
2022-11-17T00:38:39.797Z,97240.31
2022-11-17T00:39:43.492Z,97244.53
2022-11-17T00:40:46.167Z,97247.91
2022-11-17T00:41:50.112Z,97250.50
2022-11-17T00:42:54.253Z,97250.50
2022-11-17T00:43:58.030Z,97251.31
2022-11-17T00:45:00.715Z,97245.22
2022-11-17T00:46:04.448Z,97246.03
2022-11-17T00:47:08.149Z,97255.53
2022-11-17T00:48:10.776Z,97258.09
2022-11-17T00:49:14.717Z,97249.44
2022-11-17T00:50:17.427Z,97257.16
2022-11-17T00:51:21.188Z,97258.81
2022-11-17T00:52:25.005Z,97262.31
2022-11-17T00:53:27.758Z,97253.75
2022-11-17T00:54:31.558Z,97258.22
2022-11-17T00:55:34.194Z,97259.03
2022-11-17T00:56:37.986Z,97251.31
2022-11-17T00:57:40.608Z,97253.06
2022-11-17T00:58:45.715Z,97249.69
2022-11-17T00:59:48.381Z,97261.63
2022-11-17T01:00:52.076Z,97260.69
2022-11-17T01:01:55.921Z,97258.91
2022-11-17T01:02:58.617Z,97254.72
2022-11-17T01:04:04.339Z,97253.88
2022-11-17T01:05:07.772Z,97257.28
2022-11-17T01:06:13.014Z,97254.59
2022-11-17T01:07:15.714Z,97258.81
2022-11-17T01:08:19.437Z,97257.97
2022-11-17T01:09:24.487Z,97257.06
2022-11-17T01:10:27.295Z,97263.84
2022-11-17T01:11:31.118Z,97254.50
2022-11-17T01:12:33.814Z,97259.53
2022-11-17T01:13:38.021Z,97253.41
2022-11-17T01:14:42.268Z,97244.75
2022-11-17T01:15:45.959Z,97248.25
2022-11-17T01:16:48.693Z,97246.63
2022-11-17T01:17:52.418Z,97248.25
2022-11-17T01:18:55.125Z,97238.78
2022-11-17T01:19:58.978Z,97251.56
2022-11-17T01:21:09.458Z,97234.34
2022-11-17T01:22:13.238Z,97247.22
2022-11-17T01:23:15.914Z,97241.25
2022-11-17T01:24:19.930Z,97234.44
2022-11-17T01:25:22.798Z,97239.59
2022-11-17T01:26:28.375Z,97232.81
2022-11-17T01:27:31.106Z,97241.34
2022-11-17T01:28:35.207Z,97239.59
2022-11-17T01:29:37.869Z,97241.25
2022-11-17T01:30:42.938Z,97236.09
2022-11-17T01:31:49.338Z,97244.53
2022-11-17T01:32:53.066Z,97236.09
2022-11-17T01:33:56.139Z,97236.78
2022-11-17T01:34:59.908Z,97238.56
2022-11-17T01:36:03.548Z,97235.84
2022-11-17T01:37:22.345Z,97235.84
2022-11-17T01:38:25.045Z,97240.88
2022-11-17T01:39:29.848Z,97239.97
2022-11-17T01:40:32.506Z,97248.38
2022-11-17T01:41:36.215Z,97249.22
2022-11-17T01:42:38.858Z,97244.78
2022-11-17T01:43:44.698Z,97251.56
2022-11-17T01:45:18.718Z,97247.22
2022-11-17T01:46:30.351Z,97239.72
2022-11-17T01:47:41.946Z,97236.19
2022-11-17T01:48:45.249Z,97245.69
2022-11-17T01:49:49.625Z,97234.47
2022-11-17T01:50:52.333Z,97235.16
2022-11-17T01:52:02.077Z,97238.69
2022-11-17T01:53:07.945Z,97234.34
2022-11-17T01:54:12.878Z,97230.94
2022-11-17T01:55:15.686Z,97242.88
2022-11-17T01:56:21.806Z,97235.84
2022-11-17T01:57:28.087Z,97229.78
2022-11-17T01:58:34.415Z,97229.66
2022-11-17T01:59:39.918Z,97232.22
2022-11-17T02:00:43.693Z,97232.22
2022-11-17T02:01:56.051Z,97222.72
2022-11-17T02:03:00.255Z,97225.31
2022-11-17T02:04:02.874Z,97230.47
2022-11-17T02:05:11.793Z,97226.94
2022-11-17T02:06:17.677Z,97223.56
2022-11-17T02:07:24.368Z,97225.31
2022-11-17T02:08:28.755Z,97221.09
2022-11-17T02:09:33.406Z,97221.09
2022-11-17T02:10:36.816Z,97216.75
2022-11-17T02:11:40.592Z,97216.75
2022-11-17T02:12:43.479Z,97226.13
2022-11-17T02:13:47.604Z,97220.16
2022-11-17T02:14:50.958Z,97221.91
2022-11-17T02:15:55.371Z,97229.66
2022-11-17T02:17:07.015Z,97224.38
2022-11-17T02:18:14.057Z,97221.78
2022-11-17T02:19:20.196Z,97226.81
2022-11-17T02:20:35.237Z,97226.72
2022-11-17T02:22:07.479Z,97229.41
2022-11-17T02:23:46.146Z,97235.63
2022-11-17T02:25:04.526Z,97236.78
2022-11-17T02:26:34.097Z,97235.16
2022-11-17T02:28:01.907Z,97224.25
2022-11-17T02:29:07.265Z,97230.34
2022-11-17T02:30:14.603Z,97235.50
2022-11-17T02:31:24.226Z,97227.63
2022-11-17T02:32:32.708Z,97230.22
2022-11-17T02:33:42.855Z,97234.34
2022-11-17T02:34:51.772Z,97232.44
2022-11-17T02:35:59.934Z,97227.19
2022-11-17T02:37:11.188Z,97222.03
2022-11-17T02:38:23.106Z,97229.53
2022-11-17T02:39:29.016Z,97228.56
2022-11-17T02:40:34.836Z,97229.41
2022-11-17T02:41:44.617Z,97233.63
2022-11-17T02:43:09.905Z,97224.13
2022-11-17T02:44:16.886Z,97231.97
2022-11-17T02:45:22.015Z,97226.00
2022-11-17T02:46:27.447Z,97230.25
2022-11-17T02:47:31.583Z,97226.59
2022-11-17T02:48:37.747Z,97228.34
2022-11-17T02:49:44.967Z,97232.44
2022-11-17T02:50:49.772Z,97240.91
2022-11-17T02:51:55.525Z,97230.59
2022-11-17T02:53:01.444Z,97237.38
2022-11-17T02:54:04.554Z,97238.19
2022-11-17T02:55:10.933Z,97237.16
2022-11-17T02:56:13.901Z,97232.09
2022-11-17T02:57:30.428Z,97237.25
2022-11-17T02:58:34.654Z,97243.34
2022-11-17T02:59:41.757Z,97239.81
2022-11-17T03:00:54.058Z,97242.41
2022-11-17T03:02:21.735Z,97240.78
2022-11-17T03:03:33.938Z,97233.97
2022-11-17T03:04:49.085Z,97238.44
2022-11-17T03:05:58.595Z,97240.19
2022-11-17T03:07:12.723Z,97237.72
2022-11-17T03:08:27.590Z,97241.25
2022-11-17T03:09:43.784Z,97237.97
2022-11-17T03:10:54.291Z,97242.19
2022-11-17T03:12:00.703Z,97237.84
2022-11-17T03:13:11.984Z,97241.13
2022-11-17T03:14:21.326Z,97236.69
2022-11-17T03:15:29.147Z,97234.91
2022-11-17T03:16:36.684Z,97238.31
2022-11-17T03:17:46.576Z,97232.34
2022-11-17T03:18:55.304Z,97233.16
2022-11-17T03:20:03.723Z,97235.88
2022-11-17T03:21:11.707Z,97234.09
2022-11-17T03:22:18.495Z,97229.84
2022-11-17T03:23:25.897Z,97235.00
2022-11-17T03:24:31.807Z,97230.00
2022-11-17T03:25:37.856Z,97233.50
2022-11-17T03:26:44.734Z,97231.63
2022-11-17T03:27:49.238Z,97223.88
2022-11-17T03:28:54.456Z,97229.84
2022-11-17T03:30:00.353Z,97228.94
2022-11-17T03:31:07.275Z,97217.81
2022-11-17T03:32:11.266Z,97221.22
2022-11-17T03:33:19.162Z,97222.03
2022-11-17T03:34:23.641Z,97222.84
2022-11-17T03:35:29.635Z,97219.44
2022-11-17T03:36:35.771Z,97222.72
2022-11-17T03:37:43.133Z,97219.44
2022-11-17T03:38:52.950Z,97222.84
2022-11-17T03:40:00.436Z,97216.88
2022-11-17T03:41:05.435Z,97220.41
2022-11-17T03:42:15.774Z,97222.03
2022-11-17T03:43:21.135Z,97217.69
2022-11-17T03:44:26.209Z,97221.22
2022-11-17T03:45:32.213Z,97222.03
2022-11-17T03:48:03.174Z,97221.31
2022-11-17T03:49:17.605Z,97223.88
2022-11-17T03:50:30.214Z,97229.03
2022-11-17T03:51:34.246Z,97228.13
2022-11-17T03:52:38.205Z,97226.38
2022-11-17T03:53:42.331Z,97227.19
2022-11-17T03:54:48.605Z,97223.66
2022-11-17T03:55:57.223Z,97221.91
2022-11-17T03:57:06.457Z,97224.47
2022-11-17T03:58:14.054Z,97223.66
2022-11-17T03:59:20.443Z,97222.84
2022-11-17T04:00:26.045Z,97224.59
2022-11-17T04:01:31.674Z,97224.59
2022-11-17T04:02:36.763Z,97226.38
2022-11-17T04:03:41.017Z,97226.25
2022-11-17T04:05:03.506Z,97229.63
2022-11-17T04:06:08.375Z,97233.16
2022-11-17T04:07:11.040Z,97228.00
2022-11-17T04:08:14.798Z,97222.84
2022-11-17T04:09:22.864Z,97222.84
2022-11-17T04:10:28.255Z,97221.91
2022-11-17T04:11:49.456Z,97225.28
2022-11-17T04:13:10.928Z,97224.47
2022-11-17T04:14:31.995Z,97227.06
2022-11-17T04:15:53.202Z,97226.38
2022-11-17T04:16:58.628Z,97228.22
2022-11-17T04:18:01.450Z,97242.88
2022-11-17T04:19:05.684Z,97231.63
2022-11-17T04:20:10.055Z,97239.34
2022-11-17T04:21:15.070Z,97233.38
2022-11-17T04:22:17.774Z,97235.88
2022-11-17T04:23:22.243Z,97237.50
2022-11-17T04:24:24.946Z,97237.50
2022-11-17T04:25:42.439Z,97239.13
2022-11-17T04:27:03.706Z,97235.75
2022-11-17T04:28:24.886Z,97229.84
2022-11-17T04:29:29.180Z,97233.38
2022-11-17T04:30:31.784Z,97235.00
2022-11-17T04:31:35.585Z,97234.19
2022-11-17T04:32:41.007Z,97230.00
2022-11-17T04:33:46.874Z,97227.41
2022-11-17T04:34:49.664Z,97226.47
2022-11-17T04:35:53.564Z,97227.41
2022-11-17T04:36:57.357Z,97223.06
2022-11-17T04:38:00.257Z,97230.00
2022-11-17T04:39:05.195Z,97232.56
2022-11-17T04:40:09.563Z,97229.84
2022-11-17T04:41:31.903Z,97224.84
2022-11-17T04:42:35.694Z,97224.97
2022-11-17T04:43:38.640Z,97226.72
2022-11-17T04:44:43.084Z,97229.28
2022-11-17T04:45:45.714Z,97227.66
2022-11-17T04:46:50.467Z,97220.84
2022-11-17T04:47:54.742Z,97235.41
2022-11-17T04:48:59.100Z,97230.25
2022-11-17T04:50:01.851Z,97231.97
2022-11-17T04:51:06.155Z,97233.63
2022-11-17T04:52:08.845Z,97230.13
2022-11-17T04:53:12.572Z,97236.09
2022-11-17T04:54:19.388Z,97235.16
2022-11-17T04:55:22.040Z,97233.50
2022-11-17T04:56:26.830Z,97235.16
2022-11-17T04:57:30.739Z,97233.50
2022-11-17T04:58:33.564Z,97233.50
2022-11-17T04:59:37.214Z,97244.63
2022-11-17T05:00:40.333Z,97237.84
2022-11-17T05:01:44.673Z,97242.88
2022-11-17T05:02:47.683Z,97237.72
2022-11-17T05:03:54.133Z,97241.03
2022-11-17T05:04:56.834Z,97235.97
2022-11-17T05:06:00.483Z,97238.53
2022-11-17T05:07:03.297Z,97230.94
2022-11-17T05:08:06.992Z,97243.94
2022-11-17T05:09:11.205Z,97238.88
2022-11-17T05:10:15.373Z,97241.72
2022-11-17T05:11:36.805Z,97236.66
2022-11-17T05:12:57.991Z,97238.56
2022-11-17T05:14:00.652Z,97242.06
2022-11-17T05:15:04.442Z,97240.53
2022-11-17T05:16:26.705Z,97241.47
2022-11-17T05:17:29.816Z,97239.97
2022-11-17T05:18:32.544Z,97244.31
2022-11-17T05:19:38.885Z,97241.72
2022-11-17T05:20:41.497Z,97249.47
2022-11-17T05:21:45.253Z,97239.97
2022-11-17T05:23:07.082Z,97240.78
2022-11-17T05:24:10.125Z,97240.88
2022-11-17T05:25:13.354Z,97241.81
2022-11-17T05:26:18.243Z,97245.94
2022-11-17T05:27:21.176Z,97246.75
2022-11-17T05:28:25.341Z,97247.44
2022-11-17T05:29:29.145Z,97248.25
2022-11-17T05:30:31.818Z,97243.84
2022-11-17T05:31:35.907Z,97250.63
2022-11-17T05:32:38.705Z,97253.31
2022-11-17T05:33:43.054Z,97254.13
2022-11-17T05:34:48.300Z,97255.09
2022-11-17T05:35:52.136Z,97249.94
2022-11-17T05:36:57.585Z,97251.56
2022-11-17T05:38:00.223Z,97255.78
2022-11-17T05:39:05.008Z,97258.34
2022-11-17T05:40:09.294Z,97255.78
2022-11-17T05:41:13.414Z,97253.19
2022-11-17T05:42:16.389Z,97255.78
2022-11-17T05:43:21.795Z,97256.72
2022-11-17T05:44:24.506Z,97251.66
2022-11-17T05:45:28.307Z,97261.28
2022-11-17T05:46:31.005Z,97254.63
2022-11-17T05:47:34.681Z,97260.81
2022-11-17T05:48:37.433Z,97270.31
2022-11-17T05:49:41.174Z,97268.66
2022-11-17T05:50:45.243Z,97270.31
2022-11-17T05:51:52.672Z,97274.50
2022-11-17T05:52:55.804Z,97273.81
2022-11-17T05:53:59.645Z,97273.00
2022-11-17T05:55:02.345Z,97273.09
2022-11-17T05:56:13.735Z,97271.59
2022-11-17T05:57:18.472Z,97276.88
2022-11-17T05:58:25.471Z,97276.88
2022-11-17T05:59:30.616Z,97269.94
2022-11-17T06:00:35.254Z,97283.66
2022-11-17T06:01:41.314Z,97280.13
2022-11-17T06:02:47.317Z,97280.81
2022-11-17T06:03:53.215Z,97279.91
2022-11-17T06:04:56.974Z,97282.50
2022-11-17T06:06:01.146Z,97280.59
2022-11-17T06:07:05.217Z,97285.75
2022-11-17T06:08:07.967Z,97281.44
2022-11-17T06:09:11.675Z,97284.94
2022-11-17T06:10:14.353Z,97286.72
2022-11-17T06:11:19.193Z,97289.28
2022-11-17T06:12:22.905Z,97282.50
2022-11-17T06:13:29.236Z,97279.91
2022-11-17T06:14:33.155Z,97285.97
2022-11-17T06:15:36.105Z,97287.75
2022-11-17T06:16:43.365Z,97284.34
2022-11-17T06:17:49.534Z,97293.03
2022-11-17T06:18:57.207Z,97292.19
2022-11-17T06:20:02.343Z,97289.75
2022-11-17T06:21:07.936Z,97296.75
2022-11-17T06:22:12.737Z,97295.94
2022-11-17T06:23:17.885Z,97293.47
2022-11-17T06:24:20.971Z,97297.00
2022-11-17T06:25:25.090Z,97301.44
2022-11-17T06:26:28.007Z,97297.22
2022-11-17T06:27:32.612Z,97305.91
2022-11-17T06:28:36.614Z,97297.44
2022-11-17T06:29:44.415Z,97292.28
2022-11-17T06:30:47.785Z,97290.66
2022-11-17T06:31:51.597Z,97301.91
2022-11-17T06:32:54.488Z,97299.44
2022-11-17T06:33:58.325Z,97305.41
2022-11-17T06:35:01.595Z,97304.59
2022-11-17T06:36:08.753Z,97301.91
2022-11-17T06:37:12.091Z,97307.03
2022-11-17T06:38:15.784Z,97311.25
2022-11-17T06:39:18.437Z,97313.84
2022-11-17T06:40:22.077Z,97317.34
2022-11-17T06:41:24.891Z,97308.00
2022-11-17T06:42:42.417Z,97307.16
2022-11-17T06:43:46.193Z,97311.50
2022-11-17T06:44:48.779Z,97311.50
2022-11-17T06:45:52.475Z,97309.84
2022-11-17T06:46:55.284Z,97301.28
2022-11-17T06:47:59.224Z,97311.59
2022-11-17T06:49:03.017Z,97304.69
2022-11-17T06:50:06.485Z,97311.50
2022-11-17T06:51:11.570Z,97316.66
2022-11-17T06:52:14.296Z,97308.00
2022-11-17T06:53:18.083Z,97306.34
2022-11-17T06:54:20.943Z,97312.41
2022-11-17T06:55:24.743Z,97311.59
2022-11-17T06:56:29.724Z,97310.78
2022-11-17T06:57:32.451Z,97309.97
2022-11-17T06:58:37.560Z,97304.00
2022-11-17T06:59:41.857Z,97310.78
2022-11-17T07:00:44.848Z,97305.63
2022-11-17T07:01:48.734Z,97312.41
2022-11-17T07:02:51.523Z,97311.50
2022-11-17T07:03:55.739Z,97306.09
2022-11-17T07:04:58.786Z,97315.47
2022-11-17T07:06:03.621Z,97319.00
2022-11-17T07:07:07.955Z,97319.00
2022-11-17T07:08:11.881Z,97318.06
2022-11-17T07:09:14.990Z,97318.06
2022-11-17T07:10:19.317Z,97319.81
2022-11-17T07:11:23.031Z,97322.50
2022-11-17T07:12:26.180Z,97317.34
2022-11-17T07:13:31.075Z,97316.53
2022-11-17T07:14:33.903Z,97316.53
2022-11-17T07:15:37.664Z,97313.03
2022-11-17T07:16:42.185Z,97312.31
2022-11-17T07:17:46.115Z,97309.84
2022-11-17T07:18:50.091Z,97319.94
2022-11-17T07:19:54.751Z,97314.78
2022-11-17T07:21:03.275Z,97314.66
2022-11-17T07:22:08.562Z,97313.03
2022-11-17T07:23:11.446Z,97318.28
2022-11-17T07:24:15.221Z,97311.50
2022-11-17T07:25:22.240Z,97315.00
2022-11-17T07:26:26.653Z,97315.00
2022-11-17T07:27:30.727Z,97316.66
2022-11-17T07:28:35.546Z,97324.25
2022-11-17T07:29:38.453Z,97325.09
2022-11-17T07:30:42.178Z,97318.06
2022-11-17T07:31:47.495Z,97321.56
2022-11-17T07:32:54.658Z,97316.41
2022-11-17T07:33:57.722Z,97312.06
2022-11-17T07:35:02.293Z,97319.72
2022-11-17T07:36:06.216Z,97312.69
2022-11-17T07:37:11.562Z,97318.44
2022-11-17T07:38:15.345Z,97327.81
2022-11-17T07:39:21.492Z,97323.34
2022-11-17T07:40:25.924Z,97325.81
2022-11-17T07:41:29.650Z,97330.03
2022-11-17T07:42:32.852Z,97322.31
2022-11-17T07:43:37.523Z,97325.47
2022-11-17T07:44:40.253Z,97326.31
2022-11-17T07:45:43.981Z,97331.34
2022-11-17T07:46:46.682Z,97329.69
2022-11-17T07:47:57.705Z,97333.09
2022-11-17T07:49:01.796Z,97319.50
2022-11-17T07:50:04.843Z,97316.91
2022-11-17T07:51:08.814Z,97316.91
2022-11-17T07:52:12.952Z,97313.50
2022-11-17T07:53:16.881Z,97317.97
2022-11-17T07:54:19.883Z,97319.00
2022-11-17T07:55:24.211Z,97310.38
2022-11-17T07:56:26.873Z,97308.69
2022-11-17T07:57:31.414Z,97318.09
2022-11-17T07:58:34.536Z,97313.03
2022-11-17T07:59:38.665Z,97307.06
2022-11-17T08:00:41.425Z,97318.19
2022-11-17T08:01:45.192Z,97310.38
2022-11-17T08:02:47.902Z,97317.16
2022-11-17T08:03:51.708Z,97306.72
2022-11-17T08:04:54.504Z,97315.16
2022-11-17T08:05:58.243Z,97307.41
2022-11-17T08:07:01.007Z,97312.56
2022-11-17T08:08:08.029Z,97323.72
2022-11-17T08:09:13.634Z,97324.53
2022-11-17T08:10:17.577Z,97327.94
2022-11-17T08:11:20.414Z,97322.66
2022-11-17T08:12:24.318Z,97326.06
2022-11-17T08:13:28.063Z,97326.78
2022-11-17T08:14:30.794Z,97320.69
2022-11-17T08:15:35.007Z,97327.34
2022-11-17T08:16:38.774Z,97329.84
2022-11-17T08:17:41.490Z,97324.56
2022-11-17T08:18:51.745Z,97324.44
2022-11-17T08:19:55.412Z,97319.53
2022-11-17T08:21:04.048Z,97328.28
2022-11-17T08:22:07.811Z,97328.41
2022-11-17T08:23:12.960Z,97322.44
2022-11-17T08:24:16.434Z,97319.28
2022-11-17T08:25:20.663Z,97323.81
2022-11-17T08:26:25.737Z,97324.06
2022-11-17T08:27:28.591Z,97327.69
2022-11-17T08:28:32.633Z,97320.78
2022-11-17T08:29:35.561Z,97325.91
2022-11-17T08:30:39.363Z,97330.13
2022-11-17T08:31:46.625Z,97335.41
2022-11-17T08:32:52.364Z,97327.81
2022-11-17T08:33:55.816Z,97330.38
2022-11-17T08:34:59.621Z,97332.84
2022-11-17T08:36:03.933Z,97330.97
2022-11-17T08:37:07.629Z,97315.53
2022-11-17T08:38:11.932Z,97333.56
2022-11-17T08:39:15.672Z,97331.81
2022-11-17T08:40:18.513Z,97328.41
2022-11-17T08:41:22.303Z,97330.13
2022-11-17T08:42:25.094Z,97330.97
2022-11-17T08:43:29.042Z,97329.91
2022-11-17T08:44:31.761Z,97327.00
2022-11-17T08:45:35.512Z,97338.94
2022-11-17T08:46:39.249Z,97345.66
2022-11-17T08:47:43.108Z,97342.81
2022-11-17T08:48:45.793Z,97343.63
2022-11-17T08:49:49.569Z,97337.56
2022-11-17T08:50:53.592Z,97335.81
2022-11-17T08:51:57.463Z,97335.00
2022-11-17T08:53:00.153Z,97328.91
2022-11-17T08:54:05.441Z,97337.19
2022-11-17T08:55:10.132Z,97334.28
2022-11-17T08:56:14.611Z,97336.63
2022-11-17T08:57:18.474Z,97328.69
2022-11-17T08:58:22.239Z,97334.28
2022-11-17T08:59:25.532Z,97335.59
2022-11-17T09:00:29.336Z,97339.81
2022-11-17T09:01:33.220Z,97343.22
2022-11-17T09:02:36.757Z,97336.53
2022-11-17T09:03:40.396Z,97346.75
2022-11-17T09:04:46.210Z,97343.44
2022-11-17T09:05:52.797Z,97351.19
2022-11-17T09:06:56.161Z,97346.75
2022-11-17T09:08:16.219Z,97357.75
2022-11-17T09:09:26.204Z,97351.91
2022-11-17T09:10:29.188Z,97356.13
2022-11-17T09:11:32.896Z,97354.34
2022-11-17T09:12:36.168Z,97353.75
2022-11-17T09:13:42.785Z,97351.44
2022-11-17T09:14:45.886Z,97350.81
2022-11-17T09:15:50.031Z,97354.47
2022-11-17T09:16:54.170Z,97359.16
2022-11-17T09:17:57.027Z,97353.53
2022-11-17T09:19:00.826Z,97356.31
2022-11-17T09:20:03.690Z,97358.19
2022-11-17T09:21:09.538Z,97356.66
2022-11-17T09:22:13.269Z,97355.13
2022-11-17T09:23:15.956Z,97361.94
2022-11-17T09:24:19.930Z,97358.53
2022-11-17T09:25:25.258Z,97357.72
2022-11-17T09:26:29.017Z,97357.81
2022-11-17T09:27:31.677Z,97362.03
2022-11-17T09:28:35.825Z,97360.28
2022-11-17T09:29:39.826Z,97363.56
2022-11-17T09:30:42.590Z,97358.63
2022-11-17T09:31:46.427Z,97354.53
2022-11-17T09:32:50.146Z,97356.06
2022-11-17T09:33:54.335Z,97350.91
2022-11-17T09:34:57.218Z,97359.56
2022-11-17T09:36:00.947Z,97357.72
2022-11-17T09:37:04.715Z,97356.66
2022-11-17T09:38:07.434Z,97349.53
2022-11-17T09:39:11.206Z,97352.78
2022-11-17T09:40:16.853Z,97349.19
2022-11-17T09:41:26.499Z,97352.25
2022-11-17T09:42:31.115Z,97356.09
2022-11-17T09:43:37.490Z,97354.81
2022-11-17T09:44:43.647Z,97356.25
2022-11-17T09:45:47.018Z,97358.34
2022-11-17T09:47:03.450Z,97352.84
2022-11-17T09:48:43.546Z,97357.06
2022-11-17T09:49:43.364Z,97350.25
2022-11-17T09:50:47.444Z,97358.91
2022-11-17T09:51:51.825Z,97350.34
2022-11-17T09:52:59.437Z,97352.84
2022-11-17T09:54:09.519Z,97352.84
2022-11-17T09:55:21.806Z,97346.88
2022-11-17T09:56:27.006Z,97352.84
2022-11-17T09:57:44.996Z,97356.94
2022-11-17T09:58:52.758Z,97346.50
2022-11-17T10:00:06.018Z,97345.56
2022-11-17T10:01:12.356Z,97345.31
2022-11-17T10:02:15.062Z,97357.06
2022-11-17T10:03:21.085Z,97348.38
2022-11-17T10:04:26.069Z,97354.00
2022-11-17T10:05:30.148Z,97347.91
2022-11-17T10:06:34.011Z,97351.28
2022-11-17T10:07:36.690Z,97352.84
2022-11-17T10:08:43.107Z,97347.53
2022-11-17T10:09:47.648Z,97359.41
2022-11-17T10:10:52.304Z,97358.34
2022-11-17T10:12:06.438Z,97356.56
2022-11-17T10:13:17.829Z,97356.47
2022-11-17T10:14:23.267Z,97365.97
2022-11-17T10:15:28.910Z,97354.13
2022-11-17T10:16:32.726Z,97363.97
2022-11-17T10:17:35.386Z,97358.94
2022-11-17T10:18:40.461Z,97362.56
2022-11-17T10:19:45.480Z,97354.94
2022-11-17T10:20:49.250Z,97357.41
2022-11-17T10:21:55.420Z,97355.88
2022-11-17T10:22:59.268Z,97353.31
2022-11-17T10:24:02.978Z,97355.75
2022-11-17T10:25:07.590Z,97358.22
2022-11-17T10:26:13.189Z,97354.72
2022-11-17T10:27:21.854Z,97356.34
2022-11-17T10:28:27.954Z,97362.34
2022-11-17T10:29:30.829Z,97357.03
2022-11-17T10:30:34.671Z,97363.84
2022-11-17T10:31:41.877Z,97363.75
2022-11-17T10:32:50.024Z,97367.16
2022-11-17T10:33:53.725Z,97363.75
2022-11-17T10:34:56.637Z,97367.97
2022-11-17T10:36:00.698Z,97367.84
2022-11-17T10:37:08.656Z,97367.47
2022-11-17T10:38:18.889Z,97368.63
2022-11-17T10:39:37.077Z,97365.00
2022-11-17T10:40:50.416Z,97364.06
2022-11-17T10:41:54.566Z,97358.78
2022-11-17T10:43:02.437Z,97351.03
2022-11-17T10:44:07.859Z,97359.03
2022-11-17T10:45:16.956Z,97360.91
2022-11-17T10:46:20.707Z,97362.66
2022-11-17T10:47:29.359Z,97360.06
2022-11-17T10:48:34.217Z,97350.00
2022-11-17T10:49:38.687Z,97354.34
2022-11-17T10:50:53.527Z,97356.00
2022-11-17T10:52:07.846Z,97350.69
2022-11-17T10:53:25.268Z,97355.88
2022-11-17T10:54:29.044Z,97354.81
2022-11-17T10:55:34.106Z,97353.75
2022-11-17T10:56:42.156Z,97361.94
2022-11-17T10:57:46.717Z,97361.47
2022-11-17T10:59:14.996Z,97355.13
2022-11-17T11:00:29.258Z,97357.72
2022-11-17T11:01:35.345Z,97354.44
2022-11-17T11:02:39.443Z,97357.97
2022-11-17T11:03:50.697Z,97362.19
2022-11-17T11:05:07.639Z,97355.13
2022-11-17T11:06:24.028Z,97359.47
2022-11-17T11:07:26.753Z,97356.75
2022-11-17T11:08:40.058Z,97354.09
2022-11-17T11:09:47.487Z,97355.72
2022-11-17T11:10:52.659Z,97352.06
2022-11-17T11:12:00.198Z,97358.16
2022-11-17T11:13:08.499Z,97357.59
2022-11-17T11:14:25.787Z,97350.22
2022-11-17T11:15:31.727Z,97351.63
2022-11-17T11:16:35.588Z,97355.28
2022-11-17T11:17:38.258Z,97357.28
2022-11-17T11:18:41.997Z,97344.03
2022-11-17T11:19:52.737Z,97357.28
2022-11-17T11:21:00.631Z,97366.31
2022-11-17T11:22:21.214Z,97359.75
2022-11-17T11:23:35.987Z,97358.34
2022-11-17T11:24:46.347Z,97365.63
2022-11-17T11:25:53.467Z,97363.28
2022-11-17T11:27:01.058Z,97362.69
2022-11-17T11:28:18.809Z,97362.91
2022-11-17T11:29:31.906Z,97363.16
2022-11-17T11:30:40.267Z,97357.19
2022-11-17T11:31:54.450Z,97355.53
2022-11-17T11:33:07.395Z,97355.41
2022-11-17T11:34:35.178Z,97346.75
2022-11-17T11:35:47.117Z,97351.91
2022-11-17T11:36:52.748Z,97347.69
2022-11-17T11:38:04.517Z,97338.19
2022-11-17T11:39:16.955Z,97343.34
2022-11-17T11:40:23.542Z,97354.59
2022-11-17T11:41:40.776Z,97351.19
2022-11-17T11:42:53.776Z,97349.53
2022-11-17T11:44:13.816Z,97352.13
2022-11-17T11:45:45.559Z,97344.63
2022-11-17T11:46:53.075Z,97347.44
2022-11-17T11:48:18.224Z,97342.41
2022-11-17T11:49:31.855Z,97342.63
2022-11-17T11:50:50.551Z,97344.50
2022-11-17T11:51:54.566Z,97348.84
2022-11-17T11:53:01.692Z,97348.03
2022-11-17T11:54:08.077Z,97345.53
2022-11-17T11:55:18.158Z,97342.03
2022-11-17T11:56:23.948Z,97347.19
2022-11-17T11:57:31.237Z,97347.09
2022-11-17T11:58:34.955Z,97344.50
2022-11-17T11:59:41.637Z,97346.28
2022-11-17T12:00:46.727Z,97339.34
2022-11-17T12:01:57.702Z,97340.16
2022-11-17T12:03:04.844Z,97338.53
2022-11-17T12:04:15.607Z,97350.47
2022-11-17T12:05:25.294Z,97350.47
2022-11-17T12:06:44.089Z,97348.03
2022-11-17T12:07:49.917Z,97350.69
2022-11-17T12:09:00.427Z,97363.38
2022-11-17T12:10:06.649Z,97356.47
2022-11-17T12:11:27.550Z,97355.50
2022-11-17T12:12:33.355Z,97358.09
2022-11-17T12:13:51.207Z,97352.94
2022-11-17T12:15:29.186Z,97353.19
2022-11-17T12:16:36.072Z,97359.38
2022-11-17T12:17:39.296Z,97351.66
2022-11-17T12:18:43.040Z,97349.06
2022-11-17T12:19:52.849Z,97349.06
2022-11-17T12:20:58.336Z,97350.69
2022-11-17T12:22:02.088Z,97345.44
2022-11-17T12:23:14.214Z,97355.63
2022-11-17T12:24:19.245Z,97357.50
2022-11-17T12:25:28.468Z,97362.91
2022-11-17T12:26:33.138Z,97361.25
2022-11-17T12:27:44.032Z,97373.34
2022-11-17T12:28:47.793Z,97370.84
2022-11-17T12:29:51.486Z,97379.53
2022-11-17T12:31:02.578Z,97384.81
2022-11-17T12:32:10.406Z,97385.97
2022-11-17T12:33:13.106Z,97384.56
2022-11-17T12:34:24.412Z,97391.72
2022-11-17T12:35:28.277Z,97390.97
2022-11-17T12:36:32.911Z,97390.16
2022-11-17T12:37:36.647Z,97405.63
2022-11-17T12:38:41.122Z,97392.88
2022-11-17T12:40:02.135Z,97392.25
2022-11-17T12:41:06.555Z,97385.59
2022-11-17T12:42:09.252Z,97387.22
2022-11-17T12:43:23.160Z,97386.28
2022-11-17T12:44:53.169Z,97385.34
2022-11-17T12:46:23.357Z,97387.22
2022-11-17T12:47:28.957Z,97390.63
2022-11-17T12:48:35.732Z,97399.16
2022-11-17T12:49:45.469Z,97393.06
2022-11-17T12:50:58.168Z,97400.81
2022-11-17T12:52:07.390Z,97403.38
2022-11-17T12:53:47.558Z,97399.06
2022-11-17T12:54:57.809Z,97402.56
2022-11-17T12:56:29.416Z,97399.06
2022-11-17T12:57:35.725Z,97412.75
2022-11-17T12:58:47.130Z,97403.19
2022-11-17T13:00:07.849Z,97416.53
2022-11-17T13:01:14.376Z,97413.72
2022-11-17T13:02:34.146Z,97411.75
2022-11-17T13:03:44.576Z,97412.34
2022-11-17T13:04:50.811Z,97406.03
2022-11-17T13:06:28.144Z,97405.78